sensor_id;sensor_type;location;lat;lon;timestamp;temperature;humidity
584;HTU21D;27024;54.068;12.116;2022-10-16T00:01:23;14.99;99.13
584;HTU21D;27024;54.068;12.116;2022-10-16T00:03:50;15.02;99.06
584;HTU21D;27024;54.068;12.116;2022-10-16T00:06:19;15.02;98.93
584;HTU21D;27024;54.068;12.116;2022-10-16T00:08:47;14.97;99.28
584;HTU21D;27024;54.068;12.116;2022-10-16T00:11:22;14.99;99.19
584;HTU21D;27024;54.068;12.116;2022-10-16T00:13:50;15.02;99.07
584;HTU21D;27024;54.068;12.116;2022-10-16T00:16:18;14.95;99.37
584;HTU21D;27024;54.068;12.116;2022-10-16T00:18:45;14.95;99.58
584;HTU21D;27024;54.068;12.116;2022-10-16T00:21:15;14.93;99.58
584;HTU21D;27024;54.068;12.116;2022-10-16T00:23:42;14.96;99.36
584;HTU21D;27024;54.068;12.116;2022-10-16T00:26:15;14.94;99.34
584;HTU21D;27024;54.068;12.116;2022-10-16T00:28:42;14.95;99.34
584;HTU21D;27024;54.068;12.116;2022-10-16T00:31:11;14.94;99.32
584;HTU21D;27024;54.068;12.116;2022-10-16T00:33:39;14.95;99.21
584;HTU21D;27024;54.068;12.116;2022-10-16T00:36:09;14.97;99.01
584;HTU21D;27024;54.068;12.116;2022-10-16T00:38:36;15.01;98.80
584;HTU21D;27024;54.068;12.116;2022-10-16T00:41:05;14.91;98.97
584;HTU21D;27024;54.068;12.116;2022-10-16T00:43:43;14.82;99.44
584;HTU21D;27024;54.068;12.116;2022-10-16T00:48:40;14.84;99.19
584;HTU21D;27024;54.068;12.116;2022-10-16T00:51:08;14.75;99.64
584;HTU21D;27024;54.068;12.116;2022-10-16T00:53:35;14.74;99.83
584;HTU21D;27024;54.068;12.116;2022-10-16T00:56:02;14.75;99.62
584;HTU21D;27024;54.068;12.116;2022-10-16T00:58:29;14.72;99.77
584;HTU21D;27024;54.068;12.116;2022-10-16T01:00:56;14.67;99.89
584;HTU21D;27024;54.068;12.116;2022-10-16T01:03:26;14.75;99.43
584;HTU21D;27024;54.068;12.116;2022-10-16T01:14:43;14.68;98.43
584;HTU21D;27024;54.068;12.116;2022-10-16T01:17:21;14.71;98.36
584;HTU21D;27024;54.068;12.116;2022-10-16T01:20:01;14.66;98.30
584;HTU21D;27024;54.068;12.116;2022-10-16T01:22:38;14.65;98.41
584;HTU21D;27024;54.068;12.116;2022-10-16T01:25:11;14.62;98.35
584;HTU21D;27024;54.068;12.116;2022-10-16T01:27:40;14.57;98.21
584;HTU21D;27024;54.068;12.116;2022-10-16T01:30:12;14.53;98.26
584;HTU21D;27024;54.068;12.116;2022-10-16T01:35:34;14.44;98.65
584;HTU21D;27024;54.068;12.116;2022-10-16T01:38:10;14.47;98.73
584;HTU21D;27024;54.068;12.116;2022-10-16T01:40:42;14.48;98.62
584;HTU21D;27024;54.068;12.116;2022-10-16T01:43:40;14.38;99.04
584;HTU21D;27024;54.068;12.116;2022-10-16T01:46:09;14.34;99.75
584;HTU21D;27024;54.068;12.116;2022-10-16T01:48:38;14.32;100.13
584;HTU21D;27024;54.068;12.116;2022-10-16T01:51:12;14.29;100.61
584;HTU21D;27024;54.068;12.116;2022-10-16T01:53:41;14.27;101.04
584;HTU21D;27024;54.068;12.116;2022-10-16T01:56:11;14.27;101.31
584;HTU21D;27024;54.068;12.116;2022-10-16T01:58:47;14.26;101.67
584;HTU21D;27024;54.068;12.116;2022-10-16T02:01:17;14.28;101.80
584;HTU21D;27024;54.068;12.116;2022-10-16T02:03:46;14.25;101.93
584;HTU21D;27024;54.068;12.116;2022-10-16T02:06:15;14.27;101.93
584;HTU21D;27024;54.068;12.116;2022-10-16T02:08:41;14.22;101.97
584;HTU21D;27024;54.068;12.116;2022-10-16T02:11:10;14.17;102.28
584;HTU21D;27024;54.068;12.116;2022-10-16T02:13:52;14.20;101.96
584;HTU21D;27024;54.068;12.116;2022-10-16T02:16:20;14.24;101.50
584;HTU21D;27024;54.068;12.116;2022-10-16T02:18:47;14.17;100.77
584;HTU21D;27024;54.068;12.116;2022-10-16T02:21:19;14.17;100.38
584;HTU21D;27024;54.068;12.116;2022-10-16T02:24:11;14.18;99.37
584;HTU21D;27024;54.068;12.116;2022-10-16T02:26:53;14.17;99.11
584;HTU21D;27024;54.068;12.116;2022-10-16T02:29:25;14.19;98.80
584;HTU21D;27024;54.068;12.116;2022-10-16T02:32:00;14.13;98.64
584;HTU21D;27024;54.068;12.116;2022-10-16T02:34:30;14.09;98.72
584;HTU21D;27024;54.068;12.116;2022-10-16T02:36:58;14.08;98.50
584;HTU21D;27024;54.068;12.116;2022-10-16T02:39:28;14.07;98.41
584;HTU21D;27024;54.068;12.116;2022-10-16T02:41:55;14.07;98.09
584;HTU21D;27024;54.068;12.116;2022-10-16T02:44:22;14.08;97.93
584;HTU21D;27024;54.068;12.116;2022-10-16T02:46:49;14.01;98.03
584;HTU21D;27024;54.068;12.116;2022-10-16T02:49:16;14.01;97.98
584;HTU21D;27024;54.068;12.116;2022-10-16T02:51:42;13.98;98.22
584;HTU21D;27024;54.068;12.116;2022-10-16T02:54:09;13.97;98.26
584;HTU21D;27024;54.068;12.116;2022-10-16T02:56:36;13.97;98.26
584;HTU21D;27024;54.068;12.116;2022-10-16T02:59:02;13.96;98.32
584;HTU21D;27024;54.068;12.116;2022-10-16T03:01:29;13.93;98.52
584;HTU21D;27024;54.068;12.116;2022-10-16T03:03:56;13.91;98.43
584;HTU21D;27024;54.068;12.116;2022-10-16T03:06:23;13.91;98.51
584;HTU21D;27024;54.068;12.116;2022-10-16T03:08:50;13.81;98.77
584;HTU21D;27024;54.068;12.116;2022-10-16T03:11:16;13.84;98.87
584;HTU21D;27024;54.068;12.116;2022-10-16T03:13:43;13.79;98.78
584;HTU21D;27024;54.068;12.116;2022-10-16T03:16:10;13.76;98.93
584;HTU21D;27024;54.068;12.116;2022-10-16T03:18:37;13.74;99.10
584;HTU21D;27024;54.068;12.116;2022-10-16T03:21:04;13.69;99.09
584;HTU21D;27024;54.068;12.116;2022-10-16T03:23:30;13.76;98.94
584;HTU21D;27024;54.068;12.116;2022-10-16T03:25:57;13.74;98.94
584;HTU21D;27024;54.068;12.116;2022-10-16T03:28:24;13.75;98.66
584;HTU21D;27024;54.068;12.116;2022-10-16T03:30:51;13.75;98.59
584;HTU21D;27024;54.068;12.116;2022-10-16T03:33:18;13.70;98.61
584;HTU21D;27024;54.068;12.116;2022-10-16T03:35:51;13.68;98.61
584;HTU21D;27024;54.068;12.116;2022-10-16T03:38:19;13.69;98.45
584;HTU21D;27024;54.068;12.116;2022-10-16T03:40:45;13.68;98.29
584;HTU21D;27024;54.068;12.116;2022-10-16T03:43:12;13.69;98.04
584;HTU21D;27024;54.068;12.116;2022-10-16T03:45:44;13.62;98.14
584;HTU21D;27024;54.068;12.116;2022-10-16T03:48:10;13.59;98.37
584;HTU21D;27024;54.068;12.116;2022-10-16T03:50:37;13.55;98.47
584;HTU21D;27024;54.068;12.116;2022-10-16T03:53:04;13.56;98.07
584;HTU21D;27024;54.068;12.116;2022-10-16T03:55:31;13.51;98.13
584;HTU21D;27024;54.068;12.116;2022-10-16T03:57:57;13.46;98.06
584;HTU21D;27024;54.068;12.116;2022-10-16T04:00:24;13.48;97.95
584;HTU21D;27024;54.068;12.116;2022-10-16T04:02:51;13.39;98.00
584;HTU21D;27024;54.068;12.116;2022-10-16T04:05:18;13.40;97.86
584;HTU21D;27024;54.068;12.116;2022-10-16T04:07:45;13.34;98.00
584;HTU21D;27024;54.068;12.116;2022-10-16T04:10:11;13.22;98.38
584;HTU21D;27024;54.068;12.116;2022-10-16T04:12:38;13.17;98.43
584;HTU21D;27024;54.068;12.116;2022-10-16T04:15:05;13.18;98.36
584;HTU21D;27024;54.068;12.116;2022-10-16T04:17:32;13.14;98.20
584;HTU21D;27024;54.068;12.116;2022-10-16T04:20:02;13.04;98.31
584;HTU21D;27024;54.068;12.116;2022-10-16T04:22:28;12.96;98.54
584;HTU21D;27024;54.068;12.116;2022-10-16T04:24:55;13.00;98.44
584;HTU21D;27024;54.068;12.116;2022-10-16T04:27:24;12.87;98.64
584;HTU21D;27024;54.068;12.116;2022-10-16T04:29:51;12.87;98.37
584;HTU21D;27024;54.068;12.116;2022-10-16T04:32:18;12.72;98.78
584;HTU21D;27024;54.068;12.116;2022-10-16T04:34:45;12.75;99.00
584;HTU21D;27024;54.068;12.116;2022-10-16T04:37:12;12.72;98.78
584;HTU21D;27024;54.068;12.116;2022-10-16T04:39:38;12.76;98.75
584;HTU21D;27024;54.068;12.116;2022-10-16T04:42:05;12.72;98.68
584;HTU21D;27024;54.068;12.116;2022-10-16T04:44:32;12.65;98.87
584;HTU21D;27024;54.068;12.116;2022-10-16T04:46:58;12.66;98.97
584;HTU21D;27024;54.068;12.116;2022-10-16T04:49:28;12.58;99.02
584;HTU21D;27024;54.068;12.116;2022-10-16T04:51:55;12.58;99.17
584;HTU21D;27024;54.068;12.116;2022-10-16T04:54:21;12.56;99.33
584;HTU21D;27024;54.068;12.116;2022-10-16T04:56:48;12.53;99.08
584;HTU21D;27024;54.068;12.116;2022-10-16T04:59:18;12.48;99.09
584;HTU21D;27024;54.068;12.116;2022-10-16T05:01:45;12.46;99.18
584;HTU21D;27024;54.068;12.116;2022-10-16T05:04:12;12.37;99.19
584;HTU21D;27024;54.068;12.116;2022-10-16T05:06:39;12.43;99.06
584;HTU21D;27024;54.068;12.116;2022-10-16T05:09:05;12.49;98.97
584;HTU21D;27024;54.068;12.116;2022-10-16T05:11:32;12.40;98.95
584;HTU21D;27024;54.068;12.116;2022-10-16T05:13:59;12.34;99.25
584;HTU21D;27024;54.068;12.116;2022-10-16T05:16:26;12.23;99.34
584;HTU21D;27024;54.068;12.116;2022-10-16T05:18:53;12.30;99.21
584;HTU21D;27024;54.068;12.116;2022-10-16T05:21:35;12.26;99.03
584;HTU21D;27024;54.068;12.116;2022-10-16T05:24:02;12.26;99.20
584;HTU21D;27024;54.068;12.116;2022-10-16T05:26:29;12.31;98.81
584;HTU21D;27024;54.068;12.116;2022-10-16T05:28:55;12.25;98.84
584;HTU21D;27024;54.068;12.116;2022-10-16T05:31:22;12.25;98.97
584;HTU21D;27024;54.068;12.116;2022-10-16T05:33:49;12.20;98.71
584;HTU21D;27024;54.068;12.116;2022-10-16T05:36:21;12.26;98.64
584;HTU21D;27024;54.068;12.116;2022-10-16T05:38:50;12.21;98.62
584;HTU21D;27024;54.068;12.116;2022-10-16T05:41:17;12.18;98.89
584;HTU21D;27024;54.068;12.116;2022-10-16T05:43:48;12.17;98.93
584;HTU21D;27024;54.068;12.116;2022-10-16T05:46:15;12.20;98.92
584;HTU21D;27024;54.068;12.116;2022-10-16T05:48:42;12.22;98.74
584;HTU21D;27024;54.068;12.116;2022-10-16T05:51:11;12.14;98.78
584;HTU21D;27024;54.068;12.116;2022-10-16T05:53:39;12.16;98.80
584;HTU21D;27024;54.068;12.116;2022-10-16T05:56:08;12.18;98.77
584;HTU21D;27024;54.068;12.116;2022-10-16T05:58:36;12.15;98.64
584;HTU21D;27024;54.068;12.116;2022-10-16T06:01:12;12.18;98.29
584;HTU21D;27024;54.068;12.116;2022-10-16T06:03:39;12.18;98.09
584;HTU21D;27024;54.068;12.116;2022-10-16T06:06:08;12.26;97.90
584;HTU21D;27024;54.068;12.116;2022-10-16T06:08:38;12.23;97.58
584;HTU21D;27024;54.068;12.116;2022-10-16T06:11:07;12.20;97.72
584;HTU21D;27024;54.068;12.116;2022-10-16T06:13:34;12.30;97.42
584;HTU21D;27024;54.068;12.116;2022-10-16T06:16:01;12.31;97.10
584;HTU21D;27024;54.068;12.116;2022-10-16T06:18:29;12.31;97.15
584;HTU21D;27024;54.068;12.116;2022-10-16T06:20:57;12.46;98.06
584;HTU21D;27024;54.068;12.116;2022-10-16T06:23:24;12.60;96.92
584;HTU21D;27024;54.068;12.116;2022-10-16T06:25:51;12.60;96.35
584;HTU21D;27024;54.068;12.116;2022-10-16T06:28:18;12.42;96.64
584;HTU21D;27024;54.068;12.116;2022-10-16T06:30:45;12.44;96.46
584;HTU21D;27024;54.068;12.116;2022-10-16T06:33:12;12.46;96.04
584;HTU21D;27024;54.068;12.116;2022-10-16T06:35:39;12.51;95.72
584;HTU21D;27024;54.068;12.116;2022-10-16T06:38:05;12.53;95.40
584;HTU21D;27024;54.068;12.116;2022-10-16T06:40:32;12.62;95.11
584;HTU21D;27024;54.068;12.116;2022-10-16T06:42:59;12.61;95.13
584;HTU21D;27024;54.068;12.116;2022-10-16T06:45:26;12.65;94.91
584;HTU21D;27024;54.068;12.116;2022-10-16T06:47:53;12.72;94.59
584;HTU21D;27024;54.068;12.116;2022-10-16T06:50:19;12.74;94.37
584;HTU21D;27024;54.068;12.116;2022-10-16T06:52:46;12.75;94.28
584;HTU21D;27024;54.068;12.116;2022-10-16T06:55:13;12.80;94.08
584;HTU21D;27024;54.068;12.116;2022-10-16T06:57:41;12.85;93.98
584;HTU21D;27024;54.068;12.116;2022-10-16T07:00:08;12.87;93.61
584;HTU21D;27024;54.068;12.116;2022-10-16T07:02:35;12.90;93.53
584;HTU21D;27024;54.068;12.116;2022-10-16T07:05:02;12.93;93.41
584;HTU21D;27024;54.068;12.116;2022-10-16T07:07:29;12.96;93.05
584;HTU21D;27024;54.068;12.116;2022-10-16T07:09:56;13.03;92.77
584;HTU21D;27024;54.068;12.116;2022-10-16T07:12:22;13.03;92.66
584;HTU21D;27024;54.068;12.116;2022-10-16T07:14:49;13.02;92.43
584;HTU21D;27024;54.068;12.116;2022-10-16T07:17:18;13.01;92.72
584;HTU21D;27024;54.068;12.116;2022-10-16T07:19:45;13.00;92.82
584;HTU21D;27024;54.068;12.116;2022-10-16T07:22:12;12.99;92.89
584;HTU21D;27024;54.068;12.116;2022-10-16T07:24:38;12.99;92.95
584;HTU21D;27024;54.068;12.116;2022-10-16T07:27:05;13.02;92.64
584;HTU21D;27024;54.068;12.116;2022-10-16T07:29:32;13.14;92.21
584;HTU21D;27024;54.068;12.116;2022-10-16T07:31:59;13.14;92.21
584;HTU21D;27024;54.068;12.116;2022-10-16T07:34:25;13.10;92.18
584;HTU21D;27024;54.068;12.116;2022-10-16T07:36:53;13.26;91.93
584;HTU21D;27024;54.068;12.116;2022-10-16T07:39:19;13.40;91.14
584;HTU21D;27024;54.068;12.116;2022-10-16T07:41:46;13.50;90.24
584;HTU21D;27024;54.068;12.116;2022-10-16T07:44:13;13.56;90.32
584;HTU21D;27024;54.068;12.116;2022-10-16T07:46:39;13.64;90.58
584;HTU21D;27024;54.068;12.116;2022-10-16T07:49:06;13.80;89.79
584;HTU21D;27024;54.068;12.116;2022-10-16T07:51:33;13.88;89.60
584;HTU21D;27024;54.068;12.116;2022-10-16T07:54:00;14.10;88.18
584;HTU21D;27024;54.068;12.116;2022-10-16T07:56:26;14.43;86.29
584;HTU21D;27024;54.068;12.116;2022-10-16T07:58:53;14.50;85.89
584;HTU21D;27024;54.068;12.116;2022-10-16T08:01:20;14.54;85.24
584;HTU21D;27024;54.068;12.116;2022-10-16T08:03:52;14.50;84.61
584;HTU21D;27024;54.068;12.116;2022-10-16T08:06:21;14.63;84.08
584;HTU21D;27024;54.068;12.116;2022-10-16T08:08:53;14.77;83.89
584;HTU21D;27024;54.068;12.116;2022-10-16T08:11:20;14.88;83.74
584;HTU21D;27024;54.068;12.116;2022-10-16T08:13:47;15.08;83.23
584;HTU21D;27024;54.068;12.116;2022-10-16T08:16:14;15.18;82.35
584;HTU21D;27024;54.068;12.116;2022-10-16T08:18:41;15.34;81.60
584;HTU21D;27024;54.068;12.116;2022-10-16T08:21:13;15.58;81.14
584;HTU21D;27024;54.068;12.116;2022-10-16T08:23:46;15.75;80.09
584;HTU21D;27024;54.068;12.116;2022-10-16T08:26:16;15.62;79.45
584;HTU21D;27024;54.068;12.116;2022-10-16T08:28:43;15.90;78.47
584;HTU21D;27024;54.068;12.116;2022-10-16T08:31:15;15.99;78.68
584;HTU21D;27024;54.068;12.116;2022-10-16T08:33:43;16.12;78.50
584;HTU21D;27024;54.068;12.116;2022-10-16T08:36:11;16.10;78.20
584;HTU21D;27024;54.068;12.116;2022-10-16T08:38:39;15.93;78.02
584;HTU21D;27024;54.068;12.116;2022-10-16T08:47:18;16.57;75.58
584;HTU21D;27024;54.068;12.116;2022-10-16T08:49:57;16.37;76.00
584;HTU21D;27024;54.068;12.116;2022-10-16T08:52:29;16.27;76.58
584;HTU21D;27024;54.068;12.116;2022-10-16T08:54:57;16.42;76.92
584;HTU21D;27024;54.068;12.116;2022-10-16T08:57:25;16.55;76.66
584;HTU21D;27024;54.068;12.116;2022-10-16T08:59:53;16.52;76.34
584;HTU21D;27024;54.068;12.116;2022-10-16T09:02:28;16.92;75.50
584;HTU21D;27024;54.068;12.116;2022-10-16T09:21:32;18.92;67.84
584;HTU21D;27024;54.068;12.116;2022-10-16T09:24:13;19.32;65.82
584;HTU21D;27024;54.068;12.116;2022-10-16T09:26:41;19.51;64.55
584;HTU21D;27024;54.068;12.116;2022-10-16T09:29:15;19.13;65.32
584;HTU21D;27024;54.068;12.116;2022-10-16T09:31:43;19.44;65.11
584;HTU21D;27024;54.068;12.116;2022-10-16T09:34:32;18.48;69.00
584;HTU21D;27024;54.068;12.116;2022-10-16T09:37:04;18.15;70.45
584;HTU21D;27024;54.068;12.116;2022-10-16T09:39:51;17.81;71.98
584;HTU21D;27024;54.068;12.116;2022-10-16T09:42:21;17.64;73.44
584;HTU21D;27024;54.068;12.116;2022-10-16T09:44:51;18.03;72.34
584;HTU21D;27024;54.068;12.116;2022-10-16T09:47:20;17.85;72.22
584;HTU21D;27024;54.068;12.116;2022-10-16T09:52:23;18.19;70.33
584;HTU21D;27024;54.068;12.116;2022-10-16T09:57:24;18.27;69.20
584;HTU21D;27024;54.068;12.116;2022-10-16T09:59:57;17.79;70.35
584;HTU21D;27024;54.068;12.116;2022-10-16T10:02:36;18.03;70.25
584;HTU21D;27024;54.068;12.116;2022-10-16T10:05:19;17.81;70.70
584;HTU21D;27024;54.068;12.116;2022-10-16T10:07:55;17.81;71.11
584;HTU21D;27024;54.068;12.116;2022-10-16T10:10:25;17.68;71.55
584;HTU21D;27024;54.068;12.116;2022-10-16T10:12:54;17.91;71.13
584;HTU21D;27024;54.068;12.116;2022-10-16T10:15:22;17.82;72.32
584;HTU21D;27024;54.068;12.116;2022-10-16T10:17:53;17.76;72.32
584;HTU21D;27024;54.068;12.116;2022-10-16T10:22:54;17.88;71.54
584;HTU21D;27024;54.068;12.116;2022-10-16T10:28:32;18.28;70.78
584;HTU21D;27024;54.068;12.116;2022-10-16T10:31:13;18.55;69.23
584;HTU21D;27024;54.068;12.116;2022-10-16T10:33:52;18.48;69.38
584;HTU21D;27024;54.068;12.116;2022-10-16T10:36:34;18.62;68.33
584;HTU21D;27024;54.068;12.116;2022-10-16T10:53:42;19.69;62.79
584;HTU21D;27024;54.068;12.116;2022-10-16T10:56:16;20.41;60.93
584;HTU21D;27024;54.068;12.116;2022-10-16T11:02:10;20.98;58.55
584;HTU21D;27024;54.068;12.116;2022-10-16T11:07:04;21.46;56.16
584;HTU21D;27024;54.068;12.116;2022-10-16T11:09:39;22.01;53.74
584;HTU21D;27024;54.068;12.116;2022-10-16T11:12:29;22.11;53.49
584;HTU21D;27024;54.068;12.116;2022-10-16T11:17:32;22.75;51.46
584;HTU21D;27024;54.068;12.116;2022-10-16T11:20:11;22.57;50.47
584;HTU21D;27024;54.068;12.116;2022-10-16T11:22:45;22.40;51.08
584;HTU21D;27024;54.068;12.116;2022-10-16T11:25:23;22.53;50.26
584;HTU21D;27024;54.068;12.116;2022-10-16T11:28:39;22.73;49.37
584;HTU21D;27024;54.068;12.116;2022-10-16T11:31:03;22.84;49.59
584;HTU21D;27024;54.068;12.116;2022-10-16T11:33:39;22.31;50.35
584;HTU21D;27024;54.068;12.116;2022-10-16T11:36:21;21.94;51.74
584;HTU21D;27024;54.068;12.116;2022-10-16T11:38:58;21.84;52.03
584;HTU21D;27024;54.068;12.116;2022-10-16T11:41:35;21.87;52.05
584;HTU21D;27024;54.068;12.116;2022-10-16T11:47:07;21.29;53.97
584;HTU21D;27024;54.068;12.116;2022-10-16T11:50:02;20.87;54.75
584;HTU21D;27024;54.068;12.116;2022-10-16T11:52:48;20.59;56.42
584;HTU21D;27024;54.068;12.116;2022-10-16T11:55:21;20.88;56.03
584;HTU21D;27024;54.068;12.116;2022-10-16T11:58:01;20.40;57.30
584;HTU21D;27024;54.068;12.116;2022-10-16T12:00:55;20.24;56.87
584;HTU21D;27024;54.068;12.116;2022-10-16T12:03:40;20.13;58.16
584;HTU21D;27024;54.068;12.116;2022-10-16T12:08:39;19.95;59.40
584;HTU21D;27024;54.068;12.116;2022-10-16T12:16:55;19.90;56.42
584;HTU21D;27024;54.068;12.116;2022-10-16T12:19:24;19.98;56.75
584;HTU21D;27024;54.068;12.116;2022-10-16T12:21:56;19.79;57.67
584;HTU21D;27024;54.068;12.116;2022-10-16T12:24:34;19.89;56.31
584;HTU21D;27024;54.068;12.116;2022-10-16T12:27:01;19.68;57.66
584;HTU21D;27024;54.068;12.116;2022-10-16T12:29:36;19.69;57.95
584;HTU21D;27024;54.068;12.116;2022-10-16T12:32:27;19.70;57.33
584;HTU21D;27024;54.068;12.116;2022-10-16T12:35:28;19.75;57.32
584;HTU21D;27024;54.068;12.116;2022-10-16T12:38:18;19.71;56.70
584;HTU21D;27024;54.068;12.116;2022-10-16T12:41:00;19.80;57.22
584;HTU21D;27024;54.068;12.116;2022-10-16T12:43:39;19.77;57.03
584;HTU21D;27024;54.068;12.116;2022-10-16T12:48:41;19.62;56.94
584;HTU21D;27024;54.068;12.116;2022-10-16T13:02:57;19.22;57.16
584;HTU21D;27024;54.068;12.116;2022-10-16T13:05:41;19.15;57.16
584;HTU21D;27024;54.068;12.116;2022-10-16T13:19:21;18.84;58.94
584;HTU21D;27024;54.068;12.116;2022-10-16T13:30:19;19.13;56.81
584;HTU21D;27024;54.068;12.116;2022-10-16T13:32:49;19.05;57.23
584;HTU21D;27024;54.068;12.116;2022-10-16T13:35:35;19.15;57.42
584;HTU21D;27024;54.068;12.116;2022-10-16T13:38:13;19.18;55.96
584;HTU21D;27024;54.068;12.116;2022-10-16T13:43:31;19.37;55.65
584;HTU21D;27024;54.068;12.116;2022-10-16T13:46:05;19.43;54.78
584;HTU21D;27024;54.068;12.116;2022-10-16T13:48:33;19.37;53.79
584;HTU21D;27024;54.068;12.116;2022-10-16T13:51:15;19.73;53.48
584;HTU21D;27024;54.068;12.116;2022-10-16T13:53:43;19.76;52.46
584;HTU21D;27024;54.068;12.116;2022-10-16T13:56:16;19.80;52.59
584;HTU21D;27024;54.068;12.116;2022-10-16T13:58:43;19.72;52.89
584;HTU21D;27024;54.068;12.116;2022-10-16T14:01:22;19.61;53.20
584;HTU21D;27024;54.068;12.116;2022-10-16T14:04:05;19.79;53.08
584;HTU21D;27024;54.068;12.116;2022-10-16T14:06:34;19.69;53.23
584;HTU21D;27024;54.068;12.116;2022-10-16T14:09:07;19.51;54.07
584;HTU21D;27024;54.068;12.116;2022-10-16T14:11:44;19.53;54.61
584;HTU21D;27024;54.068;12.116;2022-10-16T14:14:12;19.32;55.07
584;HTU21D;27024;54.068;12.116;2022-10-16T14:16:41;19.08;55.63
584;HTU21D;27024;54.068;12.116;2022-10-16T14:19:29;18.88;56.31
584;HTU21D;27024;54.068;12.116;2022-10-16T14:21:58;18.72;56.31
584;HTU21D;27024;54.068;12.116;2022-10-16T14:24:31;18.63;57.16
584;HTU21D;27024;54.068;12.116;2022-10-16T14:26:59;18.78;56.66
584;HTU21D;27024;54.068;12.116;2022-10-16T14:29:28;18.73;57.16
584;HTU21D;27024;54.068;12.116;2022-10-16T14:31:58;18.65;58.05
584;HTU21D;27024;54.068;12.116;2022-10-16T14:37:01;18.65;58.16
584;HTU21D;27024;54.068;12.116;2022-10-16T14:39:39;18.76;58.09
584;HTU21D;27024;54.068;12.116;2022-10-16T14:42:18;18.59;58.38
584;HTU21D;27024;54.068;12.116;2022-10-16T14:44:46;18.62;58.75
584;HTU21D;27024;54.068;12.116;2022-10-16T14:47:16;18.68;58.61
584;HTU21D;27024;54.068;12.116;2022-10-16T14:49:48;18.62;59.11
584;HTU21D;27024;54.068;12.116;2022-10-16T14:52:15;18.48;58.73
584;HTU21D;27024;54.068;12.116;2022-10-16T14:54:42;18.35;58.38
584;HTU21D;27024;54.068;12.116;2022-10-16T14:57:20;18.26;57.19
584;HTU21D;27024;54.068;12.116;2022-10-16T14:59:49;18.34;56.56
584;HTU21D;27024;54.068;12.116;2022-10-16T15:04:48;18.27;57.13
584;HTU21D;27024;54.068;12.116;2022-10-16T15:07:15;18.26;56.87
584;HTU21D;27024;54.068;12.116;2022-10-16T15:09:42;18.29;57.59
584;HTU21D;27024;54.068;12.116;2022-10-16T15:12:15;18.27;57.47
584;HTU21D;27024;54.068;12.116;2022-10-16T15:14:43;18.14;57.38
584;HTU21D;27024;54.068;12.116;2022-10-16T15:17:10;18.06;58.07
584;HTU21D;27024;54.068;12.116;2022-10-16T15:19:37;18.09;58.58
584;HTU21D;27024;54.068;12.116;2022-10-16T15:22:04;18.02;58.99
584;HTU21D;27024;54.068;12.116;2022-10-16T15:24:31;17.98;59.45
584;HTU21D;27024;54.068;12.116;2022-10-16T15:26:58;17.89;59.61
584;HTU21D;27024;54.068;12.116;2022-10-16T15:29:24;17.84;60.19
584;HTU21D;27024;54.068;12.116;2022-10-16T15:31:51;17.80;60.40
584;HTU21D;27024;54.068;12.116;2022-10-16T15:34:18;17.64;60.93
584;HTU21D;27024;54.068;12.116;2022-10-16T15:36:46;17.60;60.02
584;HTU21D;27024;54.068;12.116;2022-10-16T15:39:16;17.48;60.33
584;HTU21D;27024;54.068;12.116;2022-10-16T15:41:45;17.41;60.27
584;HTU21D;27024;54.068;12.116;2022-10-16T15:44:17;17.40;59.73
584;HTU21D;27024;54.068;12.116;2022-10-16T15:46:44;17.28;59.77
584;HTU21D;27024;54.068;12.116;2022-10-16T15:49:11;17.20;60.02
584;HTU21D;27024;54.068;12.116;2022-10-16T15:51:39;17.11;59.79
584;HTU21D;27024;54.068;12.116;2022-10-16T15:54:07;17.05;59.99
584;HTU21D;27024;54.068;12.116;2022-10-16T15:56:33;16.98;60.04
584;HTU21D;27024;54.068;12.116;2022-10-16T15:59:04;16.91;60.10
584;HTU21D;27024;54.068;12.116;2022-10-16T16:01:35;16.82;60.45
584;HTU21D;27024;54.068;12.116;2022-10-16T16:04:02;16.71;60.41
584;HTU21D;27024;54.068;12.116;2022-10-16T16:06:41;16.75;59.74
584;HTU21D;27024;54.068;12.116;2022-10-16T16:09:12;16.62;60.16
584;HTU21D;27024;54.068;12.116;2022-10-16T16:11:40;16.55;60.53
584;HTU21D;27024;54.068;12.116;2022-10-16T16:14:10;16.51;61.21
584;HTU21D;27024;54.068;12.116;2022-10-16T16:16:39;16.39;62.10
584;HTU21D;27024;54.068;12.116;2022-10-16T16:19:05;16.34;63.73
584;HTU21D;27024;54.068;12.116;2022-10-16T16:21:37;16.26;62.89
584;HTU21D;27024;54.068;12.116;2022-10-16T16:24:04;16.12;63.86
584;HTU21D;27024;54.068;12.116;2022-10-16T16:26:35;15.95;64.32
584;HTU21D;27024;54.068;12.116;2022-10-16T16:29:06;15.90;65.51
584;HTU21D;27024;54.068;12.116;2022-10-16T16:31:33;15.66;67.25
584;HTU21D;27024;54.068;12.116;2022-10-16T16:34:01;15.49;69.14
584;HTU21D;27024;54.068;12.116;2022-10-16T16:36:29;15.63;74.03
584;HTU21D;27024;54.068;12.116;2022-10-16T16:38:56;15.56;75.38
584;HTU21D;27024;54.068;12.116;2022-10-16T16:41:26;15.22;71.00
584;HTU21D;27024;54.068;12.116;2022-10-16T16:43:54;14.99;71.41
584;HTU21D;27024;54.068;12.116;2022-10-16T16:46:22;14.84;72.01
584;HTU21D;27024;54.068;12.116;2022-10-16T16:48:48;14.69;72.63
584;HTU21D;27024;54.068;12.116;2022-10-16T16:51:21;14.63;73.06
584;HTU21D;27024;54.068;12.116;2022-10-16T16:53:50;14.49;73.58
584;HTU21D;27024;54.068;12.116;2022-10-16T16:56:18;14.39;73.74
584;HTU21D;27024;54.068;12.116;2022-10-16T16:58:45;14.30;74.21
584;HTU21D;27024;54.068;12.116;2022-10-16T17:01:12;14.20;74.66
584;HTU21D;27024;54.068;12.116;2022-10-16T17:03:50;14.11;75.27
584;HTU21D;27024;54.068;12.116;2022-10-16T17:06:19;14.01;75.97
584;HTU21D;27024;54.068;12.116;2022-10-16T17:08:47;13.93;76.36
584;HTU21D;27024;54.068;12.116;2022-10-16T17:11:17;13.85;76.97
584;HTU21D;27024;54.068;12.116;2022-10-16T17:13:45;13.79;77.31
584;HTU21D;27024;54.068;12.116;2022-10-16T17:16:12;13.69;78.00
584;HTU21D;27024;54.068;12.116;2022-10-16T17:18:39;13.64;78.21
584;HTU21D;27024;54.068;12.116;2022-10-16T17:21:07;13.60;78.28
584;HTU21D;27024;54.068;12.116;2022-10-16T17:23:35;13.51;79.14
584;HTU21D;27024;54.068;12.116;2022-10-16T17:26:07;13.47;79.17
584;HTU21D;27024;54.068;12.116;2022-10-16T17:28:34;13.37;79.46
584;HTU21D;27024;54.068;12.116;2022-10-16T17:31:16;13.24;80.09
584;HTU21D;27024;54.068;12.116;2022-10-16T17:33:44;13.19;80.19
584;HTU21D;27024;54.068;12.116;2022-10-16T17:36:12;13.12;80.51
584;HTU21D;27024;54.068;12.116;2022-10-16T17:38:41;13.06;80.92
584;HTU21D;27024;54.068;12.116;2022-10-16T17:43:41;12.86;82.52
584;HTU21D;27024;54.068;12.116;2022-10-16T17:46:08;12.81;82.90
584;HTU21D;27024;54.068;12.116;2022-10-16T17:48:40;12.77;83.13
584;HTU21D;27024;54.068;12.116;2022-10-16T17:51:09;12.80;83.19
584;HTU21D;27024;54.068;12.116;2022-10-16T17:53:37;12.81;83.08
584;HTU21D;27024;54.068;12.116;2022-10-16T17:56:10;12.75;83.10